Pagina principale
METAR-TAF:

METAR-TAF

Aeroporti :

Aeroporto internazionale di Pohnpei

Pohnpei, Micronesia

latitudine: 06-59N, longitudine: 158-12E, altezza: 2 m

Osservazione

Il bollettino è stato emesso 37 minuti fa, alle 07:52 UTC
Vento 6 kt da nord/nord-est
Temperature 28°C
Umidità 84%
Pressione 1009 hPa
Visibilità: 24.1 km
Nubi sparse ad un'altezza di 1800 ft
Nubi sparse ad un'altezza di 13000 ft
Nuvoloso ad un'altezza di 30000 ft

METAR: PTPN 180752Z 03006KT 15SM SCT018 SCT130 BKN300 28/25 A2981

Ora: 19:29 (08:29 UTC)

Previsione

Il bollettino è stato emesso 3 ore e 9 minuti fa, alle 05:20 UTC
Previsione valida dal 18 alle 06 UTC al 19 alle 06 UTC
Vento 7 kt da est/nord-est
Visibilità: 10 km
Nubi sparse ad un'altezza di 1800 ft
Nubi sparse ad un'altezza di 13000 ft
rovesci nelle vicinanze

TAF: PTPN 180520Z 1806/1906 06007KT P6SM VCSH SCT018 SCT130

Osservazioni e previsioni meteorologiche di più di 4000 aeroporti (messaggi METAR e TAF).

Le stazioni disponibili sono rappresentate dai dischi gialli e rossi sulla carta.

Puntare il mouse per vedere il nome della stazione.

Clicca sopra per visualizzare le osservazioni e previsioni meteorologiche.

Per cambiare la mappa : fare clic sui pulsanti verdi con una croce nera per ingrandire, il pulsante verde con un trattino per diminuire, o sulla freccia verde per le mappe adiacenti.


METAR-TAF: